Latest Weather Observations for Montague Island

IDN60801

Issued at 8:35 pm EDT Saturday 29 November 2014 (issued every 30 minutes, with the page automatically refreshed every 10 minutes)

About weather observations | Map of weather stations | Latest weather observations for NSW | Other Formats
Station Details ID: 069017 Name: MONTAGUE ISLAND LIGHTHOUSE Lat: -36.25 Lon: 150.23 Height: 52.0 m
Data from the previous 72 hours. | See also: Recent months at Montague Island
Date/Time
EDT
Temp
°C
App
Temp
°C
Dew
Point
Rel
Hum
%
Delta-T
°C
Wind Press
QNH
hPa
Press
MSL
hPa
Rain
since 9 am
mm
Dir
 
Spd
km/h
Gust
km/h
Spd
kts
Gust
kts
29/08:30pm 20.4 19.3 18.7 90 1.1 NNE 22 26 12 14 1014.8 1014.7 0.0
29/08:00pm 20.5 19.6 18.3 87 1.4 N 20 28 11 15 1014.6 1014.5 0.0
29/07:30pm 20.6 20.0 18.4 87 1.4 NNE 19 22 10 12 1014.6 1014.5 0.0
29/07:00pm 20.8 20.3 18.6 87 1.4 NNE 19 22 10 12 1014.3 1014.2 0.0
29/06:30pm 20.8 20.2 18.4 86 1.5 NNE 19 24 10 13 1013.8 1013.7 0.0
29/06:00pm 21.0 19.6 18.0 83 1.9 N 22 28 12 15 1013.7 1013.6 0.0
29/05:30pm 21.2 19.4 17.8 81 2.1 NNE 24 30 13 16 1013.4 1013.3 0.0
29/05:00pm 21.4 19.7 18.0 81 2.1 NNE 24 30 13 16 1013.7 1013.6 0.0
29/04:30pm 21.6 19.0 17.8 79 2.4 NNE 28 35 15 19 1013.7 1013.6 0.0
29/04:00pm 21.5 18.4 17.5 78 2.5 NNE 30 39 16 21 1013.8 1013.7 0.0
29/03:30pm 21.6 18.0 17.6 78 2.5 NNE 33 39 18 21 1013.9 1013.8 0.0
29/03:00pm 22.1 19.2 17.9 77 2.6 NNE 30 39 16 21 1014.1 1014.0 0.0
29/02:30pm 22.1 18.9 18.1 78 2.5 NE 32 41 17 22 1014.3 1014.2 0.0
29/02:00pm 21.7 18.1 17.7 78 2.5 NE 33 41 18 22 1014.6 1014.5 0.0
29/01:30pm 21.7 18.0 17.5 77 2.6 NNE 33 43 18 23 1015.0 1014.9 0.0
29/01:00pm 21.6 17.4 17.2 76 2.7 NNE 35 44 19 24 1015.2 1015.1 0.0
29/12:30pm 21.3 16.5 15.6 70 3.4 NNE 35 43 19 23 1015.7 1015.6 0.0
29/12:00pm 21.3 16.3 16.0 72 3.2 NNE 37 44 20 24 1016.1 1016.0 0.0
29/11:30am 20.8 15.7 14.7 68 3.6 NNE 35 41 19 22 1016.7 1016.6 0.0
29/11:00am 20.8 16.8 15.1 70 3.4 NNE 30 37 16 20 1017.0 1016.9 0.0
29/10:30am 20.2 16.8 14.8 71 3.2 NNE 26 32 14 17 1017.5 1017.4 0.0
29/10:00am 19.7 15.7 14.1 70 3.2 NNE 28 33 15 18 1017.7 1017.6 0.0
29/09:30am 19.9 16.0 14.3 70 3.3 N 28 33 15 18 1018.0 1017.9 0.0
29/09:00am 19.3 16.7 14.8 75 2.6 N 22 32 12 17 1018.1 1018.0 0.0
29/08:30am 19.0 16.6 14.3 74 2.7 N 20 28 11 15 1018.3 1018.2 0.0
29/08:00am 18.8 16.1 14.5 76 2.5 N 22 32 12 17 1018.5 1018.4 0.0
29/07:30am 18.6 15.5 14.5 77 2.4 N 24 30 13 16 1018.4 1018.3 0.0
29/07:00am 18.5 16.8 14.8 79 2.2 N 17 24 9 13 1018.4 1018.3 0.0
29/06:30am 18.0 16.2 14.5 80 2.0 N 17 20 9 11 1018.4 1018.3 0.0
29/06:00am 17.7 15.9 14.4 81 1.9 N 17 20 9 11 1018.4 1018.3 0.0
29/05:30am 17.9 15.8 14.6 81 1.9 NNW 19 24 10 13 1018.2 1018.1 0.0
29/05:00am 18.0 16.0 14.9 82 1.8 NNW 19 22 10 12 1018.1 1018.0 0.0
29/04:30am 18.1 16.1 15.0 82 1.8 NNW 19 22 10 12 1018.2 1018.1 0.0
29/04:00am 18.1 16.0 14.6 80 2.0 NNW 19 22 10 12 1018.3 1018.2 0.0
29/03:30am 18.4 16.0 14.5 78 2.3 NNW 20 24 11 13 1018.7 1018.6 0.0
29/03:00am 18.4 16.0 14.5 78 2.3 NNW 20 26 11 14 1018.9 1018.8 0.0
29/02:30am 18.4 14.8 14.1 76 2.5 NNW 26 32 14 17 1019.0 1018.9 0.0
29/02:00am 18.5 14.9 14.2 76 2.5 NNW 26 30 14 16 1019.3 1019.2 0.0
29/01:30am 18.6 15.0 14.1 75 2.6 NNW 26 33 14 18 1019.6 1019.5 0.0
29/01:00am 18.8 15.7 14.5 76 2.5 NNW 24 30 13 16 1020.0 1019.9 0.0
29/12:30am 19.0 16.7 14.7 76 2.5 NNW 20 30 11 16 1020.3 1020.2 0.0
29/12:00am 19.2 15.4 14.7 75 2.6 N 28 37 15 20 1020.4 1020.3 0.0
 
Date/Time
EDT
Temp
°C
App
Temp
°C
Dew
Point
Rel
Hum
%
Delta-T
°C
Wind Press
QNH
hPa
Press
MSL
hPa
Rain
since 9 am
mm
Dir
 
Spd
km/h
Gust
km/h
Spd
kts
Gust
kts
28/11:30pm 19.2 15.9 14.0 72 3.0 N 24 32 13 17 1020.6 1020.5 0.0
28/11:00pm 19.3 15.7 14.3 73 2.9 NNE 26 32 14 17 1020.8 1020.7 0.0
28/10:30pm 19.2 14.7 13.8 71 3.1 NNE 30 35 16 19 1020.9 1020.8 0.0
28/10:00pm 19.0 14.8 13.6 71 3.1 NNE 28 35 15 19 1020.8 1020.7 0.0
28/09:30pm 19.0 15.1 13.2 69 3.3 NNE 26 33 14 18 1020.6 1020.5 0.0
28/09:00pm 19.0 15.1 13.4 70 3.2 NNE 26 32 14 17 1020.6 1020.5 0.0
28/08:30pm 19.1 15.2 13.3 69 3.3 NNE 26 30 14 16 1020.7 1020.6 0.0
28/08:00pm 19.1 15.2 13.3 69 3.3 NE 26 33 14 18 1020.6 1020.5 0.0
28/07:30pm 19.2 15.3 13.4 69 3.3 NE 26 33 14 18 1020.6 1020.5 0.0
28/07:00pm 19.3 15.6 12.6 65 3.8 NE 24 32 13 17 1020.5 1020.4 0.0
28/06:30pm 19.3 15.6 12.6 65 3.8 NE 24 30 13 16 1020.3 1020.2 0.0
28/06:00pm 19.4 15.4 12.9 66 3.7 NE 26 35 14 19 1020.0 1019.9 0.0
28/05:30pm 19.5 15.2 12.0 62 4.2 NE 26 33 14 18 1019.9 1019.8 0.0
28/05:00pm 19.7 15.0 12.0 61 4.3 NE 28 33 15 18 1020.0 1019.9 0.0
28/04:30pm 19.8 15.0 11.8 60 4.4 NE 28 37 15 20 1020.1 1020.0 0.0
28/04:00pm 19.7 15.3 11.7 60 4.4 NE 26 33 14 18 1020.4 1020.3 0.0
28/03:30pm 19.4 14.2 11.7 61 4.3 NE 30 35 16 19 1020.6 1020.5 0.0
28/03:00pm 19.5 14.3 11.5 60 4.4 NE 30 35 16 19 1020.8 1020.7 0.0
28/02:30pm 19.5 13.9 12.0 62 4.2 NE 33 41 18 22 1020.9 1020.8 0.0
28/02:00pm 19.6 14.0 12.1 62 4.2 NE 33 41 18 22 1021.3 1021.2 0.0
28/01:30pm 19.6 14.4 11.6 60 4.4 NE 30 37 16 20 1021.7 1021.6 0.0
28/01:00pm 19.5 14.6 12.5 64 3.9 NE 30 37 16 20 1022.1 1022.0 0.0
28/12:30pm 19.7 15.4 10.9 57 4.8 NE 24 35 13 19 1022.4 1022.3 0.0
28/12:00pm 20.4 17.0 12.4 60 4.5 NE 22 30 12 16 1022.9 1022.8 0.0
28/11:30am 19.6 16.6 11.9 61 4.3 NE 19 24 10 13 1023.1 1023.0 0.0
28/11:00am 19.5 16.9 12.0 62 4.2 NE 17 22 9 12 1023.3 1023.2 0.0
28/10:30am 19.9 18.3 12.9 64 4.0 NE 13 19 7 10 1023.5 1023.4 0.0
28/10:00am 18.8 17.5 11.4 62 4.0 NNE 9 15 5 8 1023.8 1023.7 0.0
28/09:30am 18.8 18.3 12.5 67 3.5 NE 7 9 4 5 1023.8 1023.7 0.0
28/09:00am 18.7 18.7 12.5 67 3.5 NNE 4 9 2 5 1023.8 1023.7 -
28/08:30am 17.9 17.1 11.7 67 3.4 NW 7 11 4 6 1023.8 1023.7 -
28/08:00am 17.5 16.8 12.0 70 3.0 WNW 7 11 4 6 1023.7 1023.6 -
28/07:30am 16.9 15.6 12.6 76 2.4 W 11 15 6 8 1023.5 1023.4 -
28/07:00am 16.5 15.6 12.7 78 2.1 W 9 13 5 7 1023.2 1023.1 -
28/06:30am 16.5 16.5 12.3 76 2.3 W 4 6 2 3 1023.1 1023.0 -
28/06:00am 16.2 15.0 12.7 80 1.9 W 11 15 6 8 1023.0 1022.9 -
28/05:30am 15.6 14.6 12.4 81 1.8 W 9 13 5 7 1022.8 1022.7 -
28/05:00am 15.8 14.9 12.5 81 1.8 W 9 11 5 6 1022.6 1022.5 -
28/04:30am 16.0 15.0 12.2 78 2.1 W 9 13 5 7 1022.7 1022.6 -
28/04:00am 16.1 15.5 12.3 78 2.1 WSW 7 11 4 6 1022.7 1022.6 -
28/03:30am 16.1 15.6 12.5 79 2.0 W 7 11 4 6 1022.8 1022.7 -
28/03:00am 16.1 15.6 12.1 77 2.2 WSW 6 9 3 5 1023.0 1022.9 -
28/02:30am 16.2 15.5 12.0 76 2.3 SSW 7 13 4 7 1023.3 1023.2 -
28/02:00am 16.4 15.6 11.8 74 2.5 SSW 7 9 4 5 1023.4 1023.3 -
28/01:30am 16.6 16.4 10.5 67 3.2 S 2 6 1 3 1023.7 1023.6 -
28/01:00am 16.6 15.7 10.7 68 3.1 S 6 9 3 5 1024.0 1023.9 -
28/12:30am 16.6 15.1 10.7 68 3.2 SE 9 13 5 7 1024.2 1024.1 -
28/12:00am 16.6 15.3 11.3 71 2.9 SE 9 15 5 8 1024.5 1024.4 -
 
Date/Time
EDT
Temp
°C
App
Temp
°C
Dew
Point
Rel
Hum
%
Delta-T
°C
Wind Press
QNH
hPa
Press
MSL
hPa
Rain
since 9 am
mm
Dir
 
Spd
km/h
Gust
km/h
Spd
kts
Gust
kts
27/11:30pm 16.6 15.3 11.1 70 3.0 SSE 9 13 5 7 1024.8 1024.7 -
27/11:00pm 16.6 15.0 11.5 72 2.8 SE 11 15 6 8 - 1018.2 -
27/10:30pm 16.6 15.4 11.5 72 2.8 SE 9 13 5 7 - 1022.8 -
27/10:00pm 16.6 15.0 11.7 73 2.7 SE 11 15 6 8 - 1017.7 -
27/09:30pm 16.7 14.7 11.4 71 2.9 SE 13 17 7 9 1024.9 1024.8 -
27/09:00pm 16.8 14.7 11.3 70 3.0 SSE 13 19 7 10 1024.7 1024.6 -
27/08:30pm 16.8 14.8 11.5 71 2.9 SE 13 17 7 9 1024.5 1024.4 -
27/08:00pm 16.8 14.8 11.5 71 2.9 SSE 13 19 7 10 - 1021.7 -
27/07:30pm 16.9 14.1 11.4 70 3.0 S 17 22 9 12 - 1021.5 -
27/07:00pm 16.8 13.6 11.3 70 3.0 SE 19 24 10 13 - 1021.2 -
27/06:30pm 16.8 - 11.5 71 2.9 - - - - - - 1020.8 -
27/06:00pm 17.2 13.9 11.7 70 3.0 SE 20 26 11 14 - 1020.4 0.2
27/05:30pm 17.1 13.7 11.2 68 3.2 SSE 20 28 11 15 - 1020.5 0.2
27/05:00pm 17.1 13.5 10.7 66 3.4 SSE 20 26 11 14 1023.5 1023.4 0.2
27/04:30pm 16.9 12.9 10.3 65 3.5 SSE 22 26 12 14 1023.4 1023.3 0.2
27/04:00pm 16.9 13.0 10.7 67 3.3 SSE 22 28 12 15 1023.3 1023.2 0.2
27/03:30pm 17.1 12.7 10.5 65 3.5 SSE 24 33 13 18 1023.4 1023.3 0.2
27/03:00pm 17.0 13.0 10.6 66 3.4 SSE 22 30 12 16 1023.4 1023.3 0.2
27/02:30pm 17.2 13.5 10.3 64 3.7 SSE 20 28 11 15 1023.5 1023.4 0.2
27/02:00pm 17.5 14.2 11.5 68 3.3 SSE 20 24 11 13 1023.5 1023.4 0.2
27/01:30pm 17.1 13.4 10.2 64 3.7 SSE 20 28 11 15 1023.5 1023.4 0.2
27/01:00pm 18.0 14.8 11.1 64 3.7 SSE 19 24 10 13 1023.3 1023.2 0.2
27/12:30pm 17.0 13.5 10.1 64 3.7 S 19 24 10 13 1023.6 1023.5 0.0
27/12:00pm 17.8 14.5 11.6 67 3.4 S 20 28 11 15 1023.5 1023.4 0.0
27/11:30am 17.3 13.4 10.9 66 3.4 S 22 30 12 16 1023.4 1023.3 0.0
27/11:00am 16.7 12.3 10.5 67 3.3 S 24 33 13 18 1023.5 1023.4 0.0
27/10:30am 16.1 10.6 10.6 70 2.9 S 30 39 16 21 1023.5 1023.4 0.0
27/10:00am 15.9 9.9 10.7 71 2.8 S 33 41 18 22 1023.4 1023.3 0.0
27/09:30am 15.5 9.4 10.5 72 2.6 S 33 43 18 23 1023.5 1023.4 0.0
27/09:00am 15.7 9.9 10.7 72 2.6 S 32 39 17 21 1023.2 1023.1 4.4
27/08:30am 15.4 9.0 10.8 74 2.4 S 35 43 19 23 1022.9 1022.8 4.4
27/08:00am 15.4 9.1 11.2 76 2.2 S 35 44 19 24 1022.8 1022.7 4.4
27/07:30am 15.4 8.8 11.2 76 2.3 S 37 48 20 26 1022.6 1022.5 4.4
27/07:00am 15.4 9.1 11.2 76 2.2 S 35 43 19 23 1022.2 1022.1 4.4
27/06:30am 15.5 9.0 11.7 78 2.1 S 37 44 20 24 1021.9 1021.8 4.4
27/06:00am 15.3 8.1 11.9 80 1.8 S 41 48 22 26 1021.5 1021.4 4.4
27/05:30am 15.5 8.8 12.4 82 1.7 S 39 46 21 25 1021.3 1021.2 4.4
27/05:00am 15.7 10.4 13.0 84 1.5 S 33 44 18 24 1021.0 1020.9 4.4
27/04:30am 15.5 11.0 13.9 90 0.9 S 30 35 16 19 1020.7 1020.6 4.4
27/04:00am 15.8 14.9 14.8 94 0.6 SSW 13 19 7 10 1020.7 1020.6 4.4
27/03:30am 15.8 14.1 14.8 94 0.6 SSW 17 24 9 13 1020.6 1020.5 4.2
27/03:00am 15.6 13.2 14.5 93 0.6 SW 20 24 11 13 1020.7 1020.6 4.2
27/02:30am 15.8 13.4 14.5 92 0.7 SW 20 24 11 13 1020.7 1020.6 3.8
27/02:00am 16.2 13.5 14.7 91 0.9 SW 22 28 12 15 1020.7 1020.6 2.8
27/01:30am 16.6 12.8 14.6 88 1.1 S 28 33 15 18 1020.7 1020.6 2.6
27/01:00am 17.3 13.6 13.8 80 2.0 SSE 26 30 14 16 1020.9 1020.8 2.4
27/12:30am 17.2 13.8 13.7 80 2.0 SSE 24 28 13 15 1021.3 1021.2 2.4
27/12:00am 17.1 14.3 14.2 83 1.7 SSE 22 28 12 15 1021.4 1021.3 2.4
 
Date/Time
EDT
Temp
°C
App
Temp
°C
Dew
Point
Rel
Hum
%
Delta-T
°C
Wind Press
QNH
hPa
Press
MSL
hPa
Rain
since 9 am
mm
Dir
 
Spd
km/h
Gust
km/h
Spd
kts
Gust
kts
26/11:30pm 17.1 14.1 13.6 80 2.0 SSE 22 28 12 15 1021.5 1021.4 2.4
26/11:00pm 16.8 13.0 13.7 82 1.7 SSE 26 32 14 17 1021.4 1021.3 2.4
26/10:30pm 16.3 11.7 14.5 89 1.0 SSE 32 35 17 19 1021.4 1021.3 2.4
26/10:00pm 16.0 11.6 14.0 88 1.1 SSE 30 35 16 19 1021.5 1021.4 0.4
26/09:30pm 17.9 12.3 13.2 74 2.7 SSE 35 39 19 21 1021.1 1021.0 0.0
26/09:00pm 18.1 13.4 13.2 73 2.8 SE 30 37 16 20 1020.7 1020.6 0.0

Other Formats:

Comma delimited format used in spreadsheet applications
http://www.bom.gov.au/fwo/IDN60801/IDN60801.94939.axf

JavaScript Object Notation format (JSON) in row-major order
http://www.bom.gov.au/fwo/IDN60801/IDN60801.94939.json